»·PEaware :: N9229P KGCN-KHII

N9229P :: KGCN-KHII

FLIGHT INFORMATION

Flight Status: Arrived
Operator: Privately registered:
United States
More flights under this callsign
Pilot: James W. (24810)
Aircraft: PIPER PA-24 COMMANCHE
(PA24)
More flights by this aircraft type
Origin: KGCN Grand Canyon Natl Park
United States
Destination: KHII Lake Havasu City
United States
More flights between these airports :: More routes between these airports
Route: PARKS4 PGS EED
File this flight plan on PilotEdge
Remarks:
Altitude:
(Current/Filed)
12,000ft
Speed:
(Current/Filed)
175kts
Departed: 22-Dec-20 10:10 AM
Arrived: 22-Dec-20 11:21 AM
Distance/Time
Traveled:
137nm/1:11
Distance/Time
To Go:
Arrived

Flight Plot

Page will automatically refresh every two minutes.

Flight plan parsing failed; only flown route is shown


Map Options




Map Legend


Flown Route
Filed Route
Departure Airport
Arrival Airport
Navaid (VOR, NDB)
Fix

Horizontal Profiles

Position Reports

Time Latitude Longitude Heading Altitude Ground
Speed
22-Dec-20 09:39 35.962230 -112.134727 220 6603ft 0kts
22-Dec-20 09:40 35.962230 -112.134727 220 6603ft 0kts
22-Dec-20 09:41 35.962230 -112.134727 220 6603ft 0kts
22-Dec-20 09:42 35.962230 -112.134727 220 6603ft 0kts
22-Dec-20 09:43 35.962230 -112.134727 220 6603ft 0kts
22-Dec-20 09:44 35.962230 -112.134727 220 6603ft 0kts
22-Dec-20 09:45 35.962230 -112.134727 220 6603ft 0kts
22-Dec-20 09:46 35.962230 -112.134727 220 6603ft 0kts
22-Dec-20 09:47 35.962230 -112.134727 220 6603ft 0kts
22-Dec-20 09:48 35.962230 -112.134727 220 6603ft 0kts
22-Dec-20 09:49 35.962230 -112.134727 220 6603ft 0kts
22-Dec-20 09:50 35.962230 -112.134727 220 6603ft 0kts
22-Dec-20 09:51 35.962230 -112.134727 220 6603ft 0kts
22-Dec-20 09:52 35.962230 -112.134727 220 6603ft 0kts
22-Dec-20 09:53 35.962230 -112.134727 220 6603ft 0kts
22-Dec-20 09:57 35.962230 -112.134727 220 6603ft 0kts
22-Dec-20 09:58 35.962230 -112.134727 220 6603ft 0kts
22-Dec-20 09:59 35.962230 -112.134727 220 6603ft 0kts
22-Dec-20 10:00 35.962230 -112.134727 220 6603ft 0kts
22-Dec-20 10:01 35.962230 -112.134727 220 6603ft 0kts
22-Dec-20 10:02 35.962230 -112.134727 220 6603ft 0kts
22-Dec-20 10:03 35.962230 -112.134727 220 6603ft 0kts
22-Dec-20 10:04 35.962230 -112.134727 220 6603ft 0kts
22-Dec-20 10:05 35.962230 -112.134727 220 6603ft 0kts
22-Dec-20 10:06 35.961078 -112.136011 223 6603ft 4kts
22-Dec-20 10:07 35.961020 -112.136246 304 6603ft 0kts
22-Dec-20 10:08 35.961165 -112.136503 305 6603ft 6kts
22-Dec-20 10:09 35.949785 -112.149818 221 6849ft 115kts
22-Dec-20 10:10 35.922880 -112.179503 221 7775ft 138kts
22-Dec-20 10:11 35.911477 -112.219830 282 8676ft 144kts
22-Dec-20 10:12 35.922714 -112.266250 266 9573ft 136kts
22-Dec-20 10:13 35.913681 -112.308826 253 10477ft 123kts
22-Dec-20 10:14 35.904810 -112.348071 254 11368ft 115kts
22-Dec-20 10:15 35.896038 -112.386461 255 11890ft 129kts
22-Dec-20 10:16 35.885530 -112.432527 255 11888ft 144kts
22-Dec-20 10:17 35.874473 -112.480682 255 11887ft 146kts
22-Dec-20 10:18 35.863331 -112.529119 255 11887ft 147kts
22-Dec-20 10:19 35.852167 -112.577556 255 11886ft 147kts
22-Dec-20 10:20 35.840975 -112.626008 255 11886ft 147kts
22-Dec-20 10:21 35.829800 -112.674305 254 11892ft 147kts
22-Dec-20 10:22 35.818499 -112.723056 254 11892ft 148kts
22-Dec-20 10:23 35.807081 -112.771889 254 11892ft 148kts
22-Dec-20 10:24 35.795706 -112.820495 254 11892ft 147kts
22-Dec-20 10:25 35.784383 -112.869021 254 11893ft 147kts
22-Dec-20 10:26 35.773076 -112.917386 254 11887ft 145kts
22-Dec-20 10:27 35.761944 -112.964912 255 11890ft 144kts
22-Dec-20 10:29 35.750809 -113.012296 255 11893ft 144kts
22-Dec-20 10:30 35.739564 -113.060094 255 11895ft 145kts
22-Dec-20 10:31 35.728257 -113.108116 255 11887ft 146kts
22-Dec-20 10:32 35.716936 -113.156063 256 11878ft 146kts
22-Dec-20 10:33 35.705538 -113.204242 256 11869ft 146kts
22-Dec-20 10:34 35.694156 -113.252261 256 11859ft 146kts
22-Dec-20 10:35 35.682760 -113.300239 256 11851ft 146kts
22-Dec-20 10:36 35.671335 -113.348252 256 11851ft 146kts
22-Dec-20 10:37 35.659929 -113.396086 256 11850ft 146kts
22-Dec-20 10:38 35.648495 -113.443951 256 11850ft 146kts
22-Dec-20 10:39 35.637028 -113.491856 256 11850ft 145kts
22-Dec-20 10:40 35.625538 -113.539589 254 11849ft 146kts
22-Dec-20 10:41 35.595730 -113.575747 229 11849ft 153kts
22-Dec-20 10:42 35.563982 -113.610676 229 11849ft 153kts
22-Dec-20 10:43 35.532230 -113.645509 229 11849ft 153kts
22-Dec-20 10:43 35.505721 -113.674527 228 11856ft 154kts
22-Dec-20 10:45 35.468125 -113.715633 228 11855ft 155kts
22-Dec-20 10:46 35.436095 -113.750561 221 11780ft 165kts
22-Dec-20 10:47 35.399765 -113.790154 221 11753ft 179kts
22-Dec-20 10:47 35.368703 -113.824069 221 11752ft 180kts
22-Dec-20 10:48 35.331062 -113.865042 221 11752ft 180kts
22-Dec-20 10:49 35.293562 -113.905799 221 11752ft 180kts
22-Dec-20 10:50 35.255945 -113.946630 221 11752ft 180kts
22-Dec-20 10:51 35.218406 -113.987325 221 11752ft 180kts
22-Dec-20 10:52 35.180764 -114.028078 221 11752ft 180kts
22-Dec-20 10:53 35.143057 -114.068850 221 11752ft 180kts
22-Dec-20 10:54 35.105530 -114.109375 221 11752ft 180kts
22-Dec-20 10:55 35.067986 -114.149897 221 11861ft 175kts
22-Dec-20 10:56 35.025359 -114.174271 176 11708ft 188kts
22-Dec-20 10:57 34.971606 -114.170208 175 11113ft 196kts
22-Dec-20 10:58 34.917101 -114.164977 175 10514ft 197kts
22-Dec-20 10:59 34.862206 -114.159901 175 9944ft 196kts
22-Dec-20 11:00 34.809997 -114.155087 175 9917ft 184kts
22-Dec-20 11:01 34.759217 -114.150412 174 9917ft 182kts
22-Dec-20 11:02 34.709473 -114.138130 168 9812ft 187kts
22-Dec-20 11:03 34.657026 -114.125049 168 9288ft 196kts
22-Dec-20 11:04 34.603328 -114.111628 168 8690ft 198kts
22-Dec-20 11:05 34.549315 -114.098147 168 8089ft 198kts
22-Dec-20 11:06 34.495417 -114.084713 168 7490ft 198kts
22-Dec-20 11:07 34.443515 -114.071855 168 6933ft 176kts
22-Dec-20 11:08 34.409101 -114.095487 239 6814ft 151kts
22-Dec-20 11:09 34.388831 -114.137062 239 6390ft 126kts
22-Dec-20 11:10 34.371506 -114.172838 239 5584ft 121kts
22-Dec-20 11:11 34.362683 -114.209521 305 4789ft 120kts
22-Dec-20 11:12 34.390205 -114.230615 329 4091ft 117kts
22-Dec-20 11:13 34.418071 -114.250145 329 3471ft 114kts
22-Dec-20 11:14 34.442369 -114.267275 329 3417ft 95kts
22-Dec-20 11:15 34.465469 -114.283583 329 2952ft 94kts
22-Dec-20 11:16 34.487770 -114.299338 329 2483ft 92kts
22-Dec-20 11:17 34.510105 -114.315120 329 1984ft 93kts
22-Dec-20 11:18 34.531284 -114.330091 330 1545ft 86kts
22-Dec-20 11:19 34.552812 -114.345328 329 1076ft 90kts
22-Dec-20 11:20 34.569334 -114.356976 326 759ft 20kts
22-Dec-20 11:21 34.568611 -114.359206 291 755ft 0kts
22-Dec-20 11:22 34.568611 -114.359206 291 755ft 0kts
22-Dec-20 11:23 34.568611 -114.359206 291 755ft 0kts
22-Dec-20 11:24 34.568611 -114.359206 291 755ft 0kts
22-Dec-20 11:25 34.568611 -114.359206 291 755ft 0kts

Navigation Log

Ident Type
Flight plan parsing failed, navigation log unavailable